sensor_id;sensor_type;location;lat;lon;timestamp;P1;durP1;ratioP1;P2;durP2;ratioP2
55114;SDS011;41010;53.252;5.786;2022-08-11T00:01:20;9.18;;;4.97;;
55114;SDS011;41010;53.252;5.786;2022-08-11T00:03:50;6.63;;;4.60;;
55114;SDS011;41010;53.252;5.786;2022-08-11T00:06:25;8.80;;;4.57;;
55114;SDS011;41010;53.252;5.786;2022-08-11T00:08:52;7.28;;;4.82;;
55114;SDS011;41010;53.252;5.786;2022-08-11T00:11:20;7.63;;;4.85;;
55114;SDS011;41010;53.252;5.786;2022-08-11T00:13:48;8.35;;;5.13;;
55114;SDS011;41010;53.252;5.786;2022-08-11T00:16:17;10.15;;;5.20;;
55114;SDS011;41010;53.252;5.786;2022-08-11T00:18:44;7.65;;;5.25;;
55114;SDS011;41010;53.252;5.786;2022-08-11T00:21:12;8.57;;;4.38;;
55114;SDS011;41010;53.252;5.786;2022-08-11T00:23:44;8.15;;;4.75;;
55114;SDS011;41010;53.252;5.786;2022-08-11T00:26:12;10.27;;;5.30;;
55114;SDS011;41010;53.252;5.786;2022-08-11T00:28:39;7.30;;;5.10;;
55114;SDS011;41010;53.252;5.786;2022-08-11T00:31:07;6.85;;;5.22;;
55114;SDS011;41010;53.252;5.786;2022-08-11T00:33:36;8.15;;;5.10;;
55114;SDS011;41010;53.252;5.786;2022-08-11T00:36:04;6.90;;;4.47;;
55114;SDS011;41010;53.252;5.786;2022-08-11T00:38:33;6.47;;;4.65;;
55114;SDS011;41010;53.252;5.786;2022-08-11T00:41:07;8.68;;;4.50;;
55114;SDS011;41010;53.252;5.786;2022-08-11T00:46:26;10.15;;;5.78;;
55114;SDS011;41010;53.252;5.786;2022-08-11T00:49:01;7.03;;;5.75;;
55114;SDS011;41010;53.252;5.786;2022-08-11T00:51:34;7.43;;;6.18;;
55114;SDS011;41010;53.252;5.786;2022-08-11T00:54:05;8.05;;;6.00;;
55114;SDS011;41010;53.252;5.786;2022-08-11T00:56:43;10.38;;;6.10;;
55114;SDS011;41010;53.252;5.786;2022-08-11T00:59:19;8.88;;;6.30;;
55114;SDS011;41010;53.252;5.786;2022-08-11T01:01:56;8.38;;;5.93;;
55114;SDS011;41010;53.252;5.786;2022-08-11T01:09:58;8.75;;;6.00;;
55114;SDS011;41010;53.252;5.786;2022-08-11T01:12:33;8.57;;;5.70;;
55114;SDS011;41010;53.252;5.786;2022-08-11T01:15:19;9.65;;;6.15;;
55114;SDS011;41010;53.252;5.786;2022-08-11T01:18:10;9.18;;;5.80;;
55114;SDS011;41010;53.252;5.786;2022-08-11T01:20:54;8.43;;;6.05;;
55114;SDS011;41010;53.252;5.786;2022-08-11T01:23:45;8.30;;;5.43;;
55114;SDS011;41010;53.252;5.786;2022-08-11T01:31:59;10.45;;;6.65;;
55114;SDS011;41010;53.252;5.786;2022-08-11T01:40:04;10.80;;;6.80;;
55114;SDS011;41010;53.252;5.786;2022-08-11T01:42:52;12.52;;;6.15;;
55114;SDS011;41010;53.252;5.786;2022-08-11T01:45:40;9.48;;;5.85;;
55114;SDS011;41010;53.252;5.786;2022-08-11T01:48:13;7.07;;;5.85;;
55114;SDS011;41010;53.252;5.786;2022-08-11T01:50:47;8.93;;;5.70;;
55114;SDS011;41010;53.252;5.786;2022-08-11T01:53:25;12.10;;;5.95;;
55114;SDS011;41010;53.252;5.786;2022-08-11T01:56:00;8.65;;;6.13;;
55114;SDS011;41010;53.252;5.786;2022-08-11T01:58:32;8.52;;;5.85;;
55114;SDS011;41010;53.252;5.786;2022-08-11T02:01:04;8.10;;;5.60;;
55114;SDS011;41010;53.252;5.786;2022-08-11T02:03:38;8.85;;;5.55;;
55114;SDS011;41010;53.252;5.786;2022-08-11T02:06:09;9.32;;;5.63;;
55114;SDS011;41010;53.252;5.786;2022-08-11T02:08:54;8.10;;;5.50;;
55114;SDS011;41010;53.252;5.786;2022-08-11T02:11:25;9.23;;;4.90;;
55114;SDS011;41010;53.252;5.786;2022-08-11T02:13:57;9.40;;;5.78;;
55114;SDS011;41010;53.252;5.786;2022-08-11T02:16:28;8.90;;;5.30;;
55114;SDS011;41010;53.252;5.786;2022-08-11T02:19:00;8.32;;;6.13;;
55114;SDS011;41010;53.252;5.786;2022-08-11T02:21:49;12.77;;;5.60;;
55114;SDS011;41010;53.252;5.786;2022-08-11T02:24:39;8.48;;;5.22;;
55114;SDS011;41010;53.252;5.786;2022-08-11T02:27:13;7.40;;;4.63;;
55114;SDS011;41010;53.252;5.786;2022-08-11T02:29:48;10.40;;;5.18;;
55114;SDS011;41010;53.252;5.786;2022-08-11T02:32:17;8.52;;;5.30;;
55114;SDS011;41010;53.252;5.786;2022-08-11T02:35:09;6.88;;;5.10;;
55114;SDS011;41010;53.252;5.786;2022-08-11T02:37:40;9.05;;;5.55;;
55114;SDS011;41010;53.252;5.786;2022-08-11T02:40:11;8.63;;;5.28;;
55114;SDS011;41010;53.252;5.786;2022-08-11T02:42:51;9.18;;;4.72;;
55114;SDS011;41010;53.252;5.786;2022-08-11T02:45:31;7.13;;;4.30;;
55114;SDS011;41010;53.252;5.786;2022-08-11T02:48:03;11.02;;;4.80;;
55114;SDS011;41010;53.252;5.786;2022-08-11T02:50:51;10.68;;;5.25;;
55114;SDS011;41010;53.252;5.786;2022-08-11T02:53:25;7.95;;;5.20;;
55114;SDS011;41010;53.252;5.786;2022-08-11T02:55:56;5.85;;;4.93;;
55114;SDS011;41010;53.252;5.786;2022-08-11T02:58:35;8.38;;;5.18;;
55114;SDS011;41010;53.252;5.786;2022-08-11T03:01:05;7.55;;;4.93;;
55114;SDS011;41010;53.252;5.786;2022-08-11T03:03:36;11.77;;;4.90;;
55114;SDS011;41010;53.252;5.786;2022-08-11T03:06:07;10.98;;;4.43;;
55114;SDS011;41010;53.252;5.786;2022-08-11T03:08:42;8.45;;;4.28;;
55114;SDS011;41010;53.252;5.786;2022-08-11T03:11:16;8.48;;;4.20;;
55114;SDS011;41010;53.252;5.786;2022-08-11T03:14:08;8.25;;;5.13;;
55114;SDS011;41010;53.252;5.786;2022-08-11T03:19:25;6.47;;;4.25;;
55114;SDS011;41010;53.252;5.786;2022-08-11T03:21:58;7.43;;;5.18;;
55114;SDS011;41010;53.252;5.786;2022-08-11T03:24:28;12.07;;;4.78;;
55114;SDS011;41010;53.252;5.786;2022-08-11T03:27:01;7.05;;;5.05;;
55114;SDS011;41010;53.252;5.786;2022-08-11T03:29:33;6.85;;;5.10;;
55114;SDS011;41010;53.252;5.786;2022-08-11T03:32:02;7.63;;;5.43;;
55114;SDS011;41010;53.252;5.786;2022-08-11T03:34:32;6.97;;;5.07;;
55114;SDS011;41010;53.252;5.786;2022-08-11T03:40:06;6.70;;;5.05;;
55114;SDS011;41010;53.252;5.786;2022-08-11T03:42:41;9.47;;;4.93;;
55114;SDS011;41010;53.252;5.786;2022-08-11T03:45:16;7.05;;;5.55;;
55114;SDS011;41010;53.252;5.786;2022-08-11T03:50:48;6.70;;;4.70;;
55114;SDS011;41010;53.252;5.786;2022-08-11T03:53:17;11.48;;;5.20;;
55114;SDS011;41010;53.252;5.786;2022-08-11T04:01:57;11.20;;;6.00;;
55114;SDS011;41010;53.252;5.786;2022-08-11T04:07:25;9.05;;;6.15;;
55114;SDS011;41010;53.252;5.786;2022-08-11T04:12:38;9.10;;;6.10;;
55114;SDS011;41010;53.252;5.786;2022-08-11T04:15:22;11.23;;;6.80;;
55114;SDS011;41010;53.252;5.786;2022-08-11T04:18:22;8.13;;;6.13;;
55114;SDS011;41010;53.252;5.786;2022-08-11T04:23:54;9.68;;;6.07;;
55114;SDS011;41010;53.252;5.786;2022-08-11T04:29:33;8.73;;;6.40;;
55114;SDS011;41010;53.252;5.786;2022-08-11T04:32:03;9.98;;;6.45;;
55114;SDS011;41010;53.252;5.786;2022-08-11T04:34:57;9.52;;;6.30;;
55114;SDS011;41010;53.252;5.786;2022-08-11T04:37:35;9.85;;;6.95;;
55114;SDS011;41010;53.252;5.786;2022-08-11T04:40:11;12.73;;;7.00;;
55114;SDS011;41010;53.252;5.786;2022-08-11T04:42:57;9.77;;;6.88;;
55114;SDS011;41010;53.252;5.786;2022-08-11T04:45:55;9.43;;;7.07;;
55114;SDS011;41010;53.252;5.786;2022-08-11T04:48:38;10.32;;;7.15;;
55114;SDS011;41010;53.252;5.786;2022-08-11T04:51:42;9.68;;;6.80;;
55114;SDS011;41010;53.252;5.786;2022-08-11T04:54:31;11.35;;;6.90;;
55114;SDS011;41010;53.252;5.786;2022-08-11T05:00:07;11.77;;;7.40;;
55114;SDS011;41010;53.252;5.786;2022-08-11T05:06:00;9.77;;;6.43;;
55114;SDS011;41010;53.252;5.786;2022-08-11T05:08:42;9.82;;;6.88;;
55114;SDS011;41010;53.252;5.786;2022-08-11T05:11:24;10.13;;;7.57;;
55114;SDS011;41010;53.252;5.786;2022-08-11T05:14:02;10.40;;;7.35;;
55114;SDS011;41010;53.252;5.786;2022-08-11T05:16:52;8.98;;;7.20;;
55114;SDS011;41010;53.252;5.786;2022-08-11T05:19:38;12.75;;;7.75;;
55114;SDS011;41010;53.252;5.786;2022-08-11T05:22:28;12.60;;;7.35;;
55114;SDS011;41010;53.252;5.786;2022-08-11T05:25:15;12.15;;;7.60;;
55114;SDS011;41010;53.252;5.786;2022-08-11T05:28:02;12.02;;;8.75;;
55114;SDS011;41010;53.252;5.786;2022-08-11T05:30:49;12.77;;;8.50;;
55114;SDS011;41010;53.252;5.786;2022-08-11T05:33:41;14.32;;;8.82;;
55114;SDS011;41010;53.252;5.786;2022-08-11T05:36:30;15.48;;;8.70;;
55114;SDS011;41010;53.252;5.786;2022-08-11T05:39:06;15.50;;;9.07;;
55114;SDS011;41010;53.252;5.786;2022-08-11T05:41:56;14.77;;;8.90;;
55114;SDS011;41010;53.252;5.786;2022-08-11T05:44:43;10.82;;;7.90;;
55114;SDS011;41010;53.252;5.786;2022-08-11T05:47:28;23.83;;;9.18;;
55114;SDS011;41010;53.252;5.786;2022-08-11T05:50:14;17.27;;;8.38;;
55114;SDS011;41010;53.252;5.786;2022-08-11T05:53:00;13.52;;;8.20;;
55114;SDS011;41010;53.252;5.786;2022-08-11T05:55:45;16.17;;;9.27;;
55114;SDS011;41010;53.252;5.786;2022-08-11T05:58:34;13.75;;;9.20;;
55114;SDS011;41010;53.252;5.786;2022-08-11T06:01:02;15.13;;;9.27;;
55114;SDS011;41010;53.252;5.786;2022-08-11T06:03:30;19.40;;;10.02;;
55114;SDS011;41010;53.252;5.786;2022-08-11T06:06:18;13.60;;;8.55;;
55114;SDS011;41010;53.252;5.786;2022-08-11T06:08:46;13.07;;;9.25;;
55114;SDS011;41010;53.252;5.786;2022-08-11T06:11:13;16.52;;;8.30;;
55114;SDS011;41010;53.252;5.786;2022-08-11T06:13:44;14.82;;;9.57;;
55114;SDS011;41010;53.252;5.786;2022-08-11T06:16:12;11.82;;;9.45;;
55114;SDS011;41010;53.252;5.786;2022-08-11T06:18:43;12.80;;;9.52;;
55114;SDS011;41010;53.252;5.786;2022-08-11T06:21:11;14.80;;;9.10;;
55114;SDS011;41010;53.252;5.786;2022-08-11T06:23:40;14.65;;;9.30;;
55114;SDS011;41010;53.252;5.786;2022-08-11T06:26:08;16.65;;;9.38;;
55114;SDS011;41010;53.252;5.786;2022-08-11T06:28:38;14.38;;;9.27;;
55114;SDS011;41010;53.252;5.786;2022-08-11T06:31:11;16.60;;;9.43;;
55114;SDS011;41010;53.252;5.786;2022-08-11T06:36:09;14.52;;;8.93;;
55114;SDS011;41010;53.252;5.786;2022-08-11T06:38:45;18.30;;;8.93;;
55114;SDS011;41010;53.252;5.786;2022-08-11T06:41:17;13.35;;;9.73;;
55114;SDS011;41010;53.252;5.786;2022-08-11T06:44:00;10.38;;;8.73;;
55114;SDS011;41010;53.252;5.786;2022-08-11T06:46:34;17.77;;;9.38;;
55114;SDS011;41010;53.252;5.786;2022-08-11T06:49:03;14.00;;;8.63;;
55114;SDS011;41010;53.252;5.786;2022-08-11T06:51:51;10.98;;;8.32;;
55114;SDS011;41010;53.252;5.786;2022-08-11T06:54:19;12.55;;;8.45;;
55114;SDS011;41010;53.252;5.786;2022-08-11T06:56:46;14.73;;;7.95;;
55114;SDS011;41010;53.252;5.786;2022-08-11T06:59:31;13.15;;;7.97;;
55114;SDS011;41010;53.252;5.786;2022-08-11T07:02:19;11.40;;;7.55;;
55114;SDS011;41010;53.252;5.786;2022-08-11T07:04:50;12.87;;;8.87;;
55114;SDS011;41010;53.252;5.786;2022-08-11T07:10:27;12.50;;;7.90;;
55114;SDS011;41010;53.252;5.786;2022-08-11T07:13:17;13.05;;;6.80;;
55114;SDS011;41010;53.252;5.786;2022-08-11T07:16:03;10.15;;;7.15;;
55114;SDS011;41010;53.252;5.786;2022-08-11T07:18:32;12.13;;;6.97;;
55114;SDS011;41010;53.252;5.786;2022-08-11T07:21:19;11.57;;;7.75;;
55114;SDS011;41010;53.252;5.786;2022-08-11T07:24:19;11.55;;;7.57;;
55114;SDS011;41010;53.252;5.786;2022-08-11T07:27:07;14.95;;;6.85;;
55114;SDS011;41010;53.252;5.786;2022-08-11T07:29:52;11.32;;;6.57;;
55114;SDS011;41010;53.252;5.786;2022-08-11T07:32:23;10.35;;;6.75;;
55114;SDS011;41010;53.252;5.786;2022-08-11T07:34:57;12.20;;;6.85;;
55114;SDS011;41010;53.252;5.786;2022-08-11T07:37:25;8.75;;;5.80;;
55114;SDS011;41010;53.252;5.786;2022-08-11T07:39:55;13.02;;;6.57;;
55114;SDS011;41010;53.252;5.786;2022-08-11T07:42:26;8.50;;;6.13;;
55114;SDS011;41010;53.252;5.786;2022-08-11T07:44:54;9.43;;;6.35;;
55114;SDS011;41010;53.252;5.786;2022-08-11T07:47:48;7.93;;;5.55;;
55114;SDS011;41010;53.252;5.786;2022-08-11T07:50:35;8.32;;;5.55;;
55114;SDS011;41010;53.252;5.786;2022-08-11T07:53:23;12.75;;;5.70;;
55114;SDS011;41010;53.252;5.786;2022-08-11T07:55:51;11.50;;;5.88;;
55114;SDS011;41010;53.252;5.786;2022-08-11T07:58:19;13.57;;;5.38;;
55114;SDS011;41010;53.252;5.786;2022-08-11T08:01:04;8.43;;;4.72;;
55114;SDS011;41010;53.252;5.786;2022-08-11T08:03:49;9.98;;;5.35;;
55114;SDS011;41010;53.252;5.786;2022-08-11T08:06:36;6.70;;;5.10;;
55114;SDS011;41010;53.252;5.786;2022-08-11T08:09:21;9.35;;;5.25;;
55114;SDS011;41010;53.252;5.786;2022-08-11T08:12:07;8.45;;;4.43;;
55114;SDS011;41010;53.252;5.786;2022-08-11T08:14:52;9.38;;;4.40;;
55114;SDS011;41010;53.252;5.786;2022-08-11T08:17:37;12.07;;;4.95;;
55114;SDS011;41010;53.252;5.786;2022-08-11T08:20:22;8.07;;;4.00;;
55114;SDS011;41010;53.252;5.786;2022-08-11T08:22:51;11.35;;;3.65;;
55114;SDS011;41010;53.252;5.786;2022-08-11T08:25:22;6.95;;;3.55;;
55114;SDS011;41010;53.252;5.786;2022-08-11T08:27:49;8.32;;;4.10;;
55114;SDS011;41010;53.252;5.786;2022-08-11T08:30:17;7.57;;;3.80;;
55114;SDS011;41010;53.252;5.786;2022-08-11T08:33:02;6.53;;;3.70;;
55114;SDS011;41010;53.252;5.786;2022-08-11T08:35:29;7.05;;;3.75;;
55114;SDS011;41010;53.252;5.786;2022-08-11T08:37:58;6.95;;;3.10;;
55114;SDS011;41010;53.252;5.786;2022-08-11T08:40:26;8.38;;;2.78;;
55114;SDS011;41010;53.252;5.786;2022-08-11T08:42:54;6.50;;;2.72;;
55114;SDS011;41010;53.252;5.786;2022-08-11T08:45:22;9.48;;;3.42;;
55114;SDS011;41010;53.252;5.786;2022-08-11T08:47:52;8.32;;;3.50;;
55114;SDS011;41010;53.252;5.786;2022-08-11T08:50:21;5.00;;;2.80;;
55114;SDS011;41010;53.252;5.786;2022-08-11T08:53:10;4.72;;;2.45;;
55114;SDS011;41010;53.252;5.786;2022-08-11T08:55:38;7.97;;;2.80;;
55114;SDS011;41010;53.252;5.786;2022-08-11T08:58:07;6.70;;;2.63;;
55114;SDS011;41010;53.252;5.786;2022-08-11T09:00:36;4.55;;;2.00;;
55114;SDS011;41010;53.252;5.786;2022-08-11T09:03:05;4.93;;;2.40;;
55114;SDS011;41010;53.252;5.786;2022-08-11T09:05:32;7.63;;;2.90;;
55114;SDS011;41010;53.252;5.786;2022-08-11T09:08:00;7.45;;;2.85;;
55114;SDS011;41010;53.252;5.786;2022-08-11T09:10:29;5.10;;;2.38;;
55114;SDS011;41010;53.252;5.786;2022-08-11T09:12:57;7.13;;;2.00;;
55114;SDS011;41010;53.252;5.786;2022-08-11T09:15:25;9.40;;;1.90;;
55114;SDS011;41010;53.252;5.786;2022-08-11T09:17:53;6.88;;;1.88;;
55114;SDS011;41010;53.252;5.786;2022-08-11T09:20:22;3.10;;;1.98;;
55114;SDS011;41010;53.252;5.786;2022-08-11T09:22:51;6.00;;;1.90;;
55114;SDS011;41010;53.252;5.786;2022-08-11T09:25:40;5.10;;;1.80;;
55114;SDS011;41010;53.252;5.786;2022-08-11T09:28:26;6.70;;;2.15;;
55114;SDS011;41010;53.252;5.786;2022-08-11T09:30:55;5.30;;;2.05;;
55114;SDS011;41010;53.252;5.786;2022-08-11T09:33:25;3.97;;;1.75;;
55114;SDS011;41010;53.252;5.786;2022-08-11T09:35:53;6.85;;;1.67;;
55114;SDS011;41010;53.252;5.786;2022-08-11T09:38:22;4.20;;;1.40;;
55114;SDS011;41010;53.252;5.786;2022-08-11T09:41:09;8.10;;;1.52;;
55114;SDS011;41010;53.252;5.786;2022-08-11T09:43:38;5.07;;;1.63;;
55114;SDS011;41010;53.252;5.786;2022-08-11T09:46:24;3.33;;;1.60;;
55114;SDS011;41010;53.252;5.786;2022-08-11T09:48:53;3.80;;;1.80;;
55114;SDS011;41010;53.252;5.786;2022-08-11T09:51:21;7.72;;;2.08;;
55114;SDS011;41010;53.252;5.786;2022-08-11T09:53:48;5.78;;;1.63;;
55114;SDS011;41010;53.252;5.786;2022-08-11T09:56:18;6.07;;;1.70;;
55114;SDS011;41010;53.252;5.786;2022-08-11T09:59:04;5.32;;;1.58;;
55114;SDS011;41010;53.252;5.786;2022-08-11T10:01:34;3.55;;;1.55;;
55114;SDS011;41010;53.252;5.786;2022-08-11T10:04:05;6.65;;;1.85;;
55114;SDS011;41010;53.252;5.786;2022-08-11T10:06:35;6.78;;;1.63;;
55114;SDS011;41010;53.252;5.786;2022-08-11T10:09:22;5.05;;;1.50;;
55114;SDS011;41010;53.252;5.786;2022-08-11T10:11:51;8.45;;;1.40;;
55114;SDS011;41010;53.252;5.786;2022-08-11T10:14:18;6.30;;;1.58;;
55114;SDS011;41010;53.252;5.786;2022-08-11T10:17:05;5.38;;;1.20;;
55114;SDS011;41010;53.252;5.786;2022-08-11T10:19:33;3.85;;;1.40;;
55114;SDS011;41010;53.252;5.786;2022-08-11T10:22:01;8.13;;;1.40;;
55114;SDS011;41010;53.252;5.786;2022-08-11T10:24:48;7.53;;;1.80;;
55114;SDS011;41010;53.252;5.786;2022-08-11T10:27:34;5.65;;;1.60;;
55114;SDS011;41010;53.252;5.786;2022-08-11T10:30:01;5.47;;;1.50;;
55114;SDS011;41010;53.252;5.786;2022-08-11T10:32:46;6.32;;;1.60;;
55114;SDS011;41010;53.252;5.786;2022-08-11T10:35:33;7.10;;;1.70;;
55114;SDS011;41010;53.252;5.786;2022-08-11T10:38:01;3.35;;;1.58;;
55114;SDS011;41010;53.252;5.786;2022-08-11T10:40:28;4.40;;;1.50;;
55114;SDS011;41010;53.252;5.786;2022-08-11T10:42:58;5.25;;;1.60;;
55114;SDS011;41010;53.252;5.786;2022-08-11T10:45:32;5.75;;;1.40;;
55114;SDS011;41010;53.252;5.786;2022-08-11T10:48:19;7.68;;;1.67;;
55114;SDS011;41010;53.252;5.786;2022-08-11T10:50:47;5.75;;;1.63;;
55114;SDS011;41010;53.252;5.786;2022-08-11T10:53:33;5.82;;;1.40;;
55114;SDS011;41010;53.252;5.786;2022-08-11T10:56:18;5.90;;;1.58;;
55114;SDS011;41010;53.252;5.786;2022-08-11T10:59:05;3.95;;;1.60;;
55114;SDS011;41010;53.252;5.786;2022-08-11T11:01:35;4.72;;;1.80;;
55114;SDS011;41010;53.252;5.786;2022-08-11T11:04:04;7.65;;;1.40;;
55114;SDS011;41010;53.252;5.786;2022-08-11T11:06:35;5.60;;;1.63;;
55114;SDS011;41010;53.252;5.786;2022-08-11T11:09:10;7.80;;;1.58;;
55114;SDS011;41010;53.252;5.786;2022-08-11T11:11:45;5.65;;;1.63;;
55114;SDS011;41010;53.252;5.786;2022-08-11T11:14:33;2.60;;;1.50;;
55114;SDS011;41010;53.252;5.786;2022-08-11T11:17:22;2.88;;;1.80;;
55114;SDS011;41010;53.252;5.786;2022-08-11T11:20:11;3.60;;;1.58;;
55114;SDS011;41010;53.252;5.786;2022-08-11T11:22:41;4.60;;;1.80;;
55114;SDS011;41010;53.252;5.786;2022-08-11T11:25:29;9.00;;;1.52;;
55114;SDS011;41010;53.252;5.786;2022-08-11T11:30:47;3.72;;;1.67;;
55114;SDS011;41010;53.252;5.786;2022-08-11T11:33:19;4.50;;;1.75;;
55114;SDS011;41010;53.252;5.786;2022-08-11T11:35:53;3.60;;;1.83;;
55114;SDS011;41010;53.252;5.786;2022-08-11T11:38:24;6.68;;;1.98;;
55114;SDS011;41010;53.252;5.786;2022-08-11T11:40:51;5.20;;;1.75;;
55114;SDS011;41010;53.252;5.786;2022-08-11T11:43:32;5.75;;;1.98;;
55114;SDS011;41010;53.252;5.786;2022-08-11T11:46:03;4.97;;;2.15;;
55114;SDS011;41010;53.252;5.786;2022-08-11T11:48:33;5.10;;;2.13;;
55114;SDS011;41010;53.252;5.786;2022-08-11T11:51:01;2.83;;;1.70;;
55114;SDS011;41010;53.252;5.786;2022-08-11T11:53:29;2.75;;;1.70;;
55114;SDS011;41010;53.252;5.786;2022-08-11T11:55:56;5.05;;;1.77;;
55114;SDS011;41010;53.252;5.786;2022-08-11T11:58:25;6.07;;;1.70;;
55114;SDS011;41010;53.252;5.786;2022-08-11T12:01:11;5.25;;;1.80;;
55114;SDS011;41010;53.252;5.786;2022-08-11T12:03:44;2.65;;;1.77;;
55114;SDS011;41010;53.252;5.786;2022-08-11T12:06:12;3.80;;;1.80;;
55114;SDS011;41010;53.252;5.786;2022-08-11T12:08:39;7.53;;;2.20;;
55114;SDS011;41010;53.252;5.786;2022-08-11T12:11:08;4.57;;;2.08;;
55114;SDS011;41010;53.252;5.786;2022-08-11T12:13:53;3.85;;;1.80;;
55114;SDS011;41010;53.252;5.786;2022-08-11T12:16:22;3.67;;;2.00;;
55114;SDS011;41010;53.252;5.786;2022-08-11T12:18:50;4.63;;;2.00;;
55114;SDS011;41010;53.252;5.786;2022-08-11T12:21:18;3.42;;;1.88;;
55114;SDS011;41010;53.252;5.786;2022-08-11T12:23:46;4.75;;;1.77;;
55114;SDS011;41010;53.252;5.786;2022-08-11T12:26:31;8.35;;;2.00;;
55114;SDS011;41010;53.252;5.786;2022-08-11T12:29:19;3.22;;;2.10;;
55114;SDS011;41010;53.252;5.786;2022-08-11T12:31:53;6.57;;;2.13;;
55114;SDS011;41010;53.252;5.786;2022-08-11T12:34:22;9.45;;;2.70;;
55114;SDS011;41010;53.252;5.786;2022-08-11T12:36:53;10.77;;;2.50;;
55114;SDS011;41010;53.252;5.786;2022-08-11T12:39:21;8.70;;;2.50;;
55114;SDS011;41010;53.252;5.786;2022-08-11T12:42:09;6.28;;;2.85;;
55114;SDS011;41010;53.252;5.786;2022-08-11T12:44:56;10.10;;;2.80;;
55114;SDS011;41010;53.252;5.786;2022-08-11T12:47:45;6.57;;;2.40;;
55114;SDS011;41010;53.252;5.786;2022-08-11T12:50:31;5.00;;;2.55;;
55114;SDS011;41010;53.252;5.786;2022-08-11T12:53:17;13.13;;;2.70;;
55114;SDS011;41010;53.252;5.786;2022-08-11T12:55:46;5.75;;;2.75;;
55114;SDS011;41010;53.252;5.786;2022-08-11T12:58:32;7.00;;;2.50;;
55114;SDS011;41010;53.252;5.786;2022-08-11T13:00:59;6.38;;;2.45;;
55114;SDS011;41010;53.252;5.786;2022-08-11T13:03:45;6.78;;;2.60;;
55114;SDS011;41010;53.252;5.786;2022-08-11T13:06:30;15.93;;;2.90;;
55114;SDS011;41010;53.252;5.786;2022-08-11T13:08:58;8.30;;;2.78;;
55114;SDS011;41010;53.252;5.786;2022-08-11T13:11:25;6.63;;;2.65;;
55114;SDS011;41010;53.252;5.786;2022-08-11T13:14:11;7.30;;;2.70;;
55114;SDS011;41010;53.252;5.786;2022-08-11T13:16:38;5.38;;;2.85;;
55114;SDS011;41010;53.252;5.786;2022-08-11T13:19:21;15.02;;;2.90;;
55114;SDS011;41010;53.252;5.786;2022-08-11T13:21:49;5.68;;;2.60;;
55114;SDS011;41010;53.252;5.786;2022-08-11T13:24:17;5.10;;;2.70;;
55114;SDS011;41010;53.252;5.786;2022-08-11T13:26:44;5.47;;;2.70;;
55114;SDS011;41010;53.252;5.786;2022-08-11T13:29:12;6.35;;;2.90;;
55114;SDS011;41010;53.252;5.786;2022-08-11T13:31:40;5.18;;;2.67;;
55114;SDS011;41010;53.252;5.786;2022-08-11T13:34:07;10.25;;;2.55;;
55114;SDS011;41010;53.252;5.786;2022-08-11T13:36:37;5.95;;;2.58;;
55114;SDS011;41010;53.252;5.786;2022-08-11T13:39:04;3.50;;;2.35;;
55114;SDS011;41010;53.252;5.786;2022-08-11T13:41:32;4.95;;;2.60;;
55114;SDS011;41010;53.252;5.786;2022-08-11T13:44:07;4.97;;;2.50;;
55114;SDS011;41010;53.252;5.786;2022-08-11T13:46:36;6.53;;;2.38;;
55114;SDS011;41010;53.252;5.786;2022-08-11T13:49:03;4.30;;;2.40;;
55114;SDS011;41010;53.252;5.786;2022-08-11T13:51:33;3.65;;;2.47;;
55114;SDS011;41010;53.252;5.786;2022-08-11T13:54:03;3.63;;;2.55;;
55114;SDS011;41010;53.252;5.786;2022-08-11T13:56:31;6.40;;;2.80;;
55114;SDS011;41010;53.252;5.786;2022-08-11T13:59:00;6.25;;;2.40;;
55114;SDS011;41010;53.252;5.786;2022-08-11T14:01:28;5.78;;;2.50;;
55114;SDS011;41010;53.252;5.786;2022-08-11T14:03:58;4.32;;;2.60;;
55114;SDS011;41010;53.252;5.786;2022-08-11T14:06:29;8.32;;;2.58;;
55114;SDS011;41010;53.252;5.786;2022-08-11T14:08:56;5.07;;;2.83;;
55114;SDS011;41010;53.252;5.786;2022-08-11T14:11:25;8.27;;;3.00;;
55114;SDS011;41010;53.252;5.786;2022-08-11T14:14:12;7.82;;;2.80;;
55114;SDS011;41010;53.252;5.786;2022-08-11T14:16:43;5.03;;;2.92;;
55114;SDS011;41010;53.252;5.786;2022-08-11T14:19:11;5.30;;;3.30;;
55114;SDS011;41010;53.252;5.786;2022-08-11T14:21:41;5.55;;;2.70;;
55114;SDS011;41010;53.252;5.786;2022-08-11T14:24:26;5.32;;;2.85;;
55114;SDS011;41010;53.252;5.786;2022-08-11T14:26:55;7.70;;;2.97;;
55114;SDS011;41010;53.252;5.786;2022-08-11T14:29:24;3.90;;;3.15;;
55114;SDS011;41010;53.252;5.786;2022-08-11T14:31:52;4.20;;;3.33;;
55114;SDS011;41010;53.252;5.786;2022-08-11T14:34:21;5.53;;;2.55;;
55114;SDS011;41010;53.252;5.786;2022-08-11T14:36:49;6.18;;;4.03;;
55114;SDS011;41010;53.252;5.786;2022-08-11T14:39:17;10.20;;;3.10;;
55114;SDS011;41010;53.252;5.786;2022-08-11T14:41:46;5.85;;;2.40;;
55114;SDS011;41010;53.252;5.786;2022-08-11T14:44:35;5.72;;;2.60;;
55114;SDS011;41010;53.252;5.786;2022-08-11T14:47:19;6.40;;;2.80;;
55114;SDS011;41010;53.252;5.786;2022-08-11T14:49:47;4.10;;;2.92;;
55114;SDS011;41010;53.252;5.786;2022-08-11T14:52:16;3.03;;;2.80;;
55114;SDS011;41010;53.252;5.786;2022-08-11T14:54:45;6.53;;;3.20;;
55114;SDS011;41010;53.252;5.786;2022-08-11T14:57:31;4.10;;;2.92;;
55114;SDS011;41010;53.252;5.786;2022-08-11T15:00:04;5.60;;;2.70;;
55114;SDS011;41010;53.252;5.786;2022-08-11T15:02:31;6.28;;;3.10;;
55114;SDS011;41010;53.252;5.786;2022-08-11T15:05:17;5.97;;;2.92;;
55114;SDS011;41010;53.252;5.786;2022-08-11T15:07:45;7.03;;;3.00;;
55114;SDS011;41010;53.252;5.786;2022-08-11T15:10:15;4.82;;;2.75;;
55114;SDS011;41010;53.252;5.786;2022-08-11T15:12:42;6.88;;;3.28;;
55114;SDS011;41010;53.252;5.786;2022-08-11T15:15:11;5.95;;;3.10;;
55114;SDS011;41010;53.252;5.786;2022-08-11T15:18:02;6.60;;;3.30;;
55114;SDS011;41010;53.252;5.786;2022-08-11T15:20:30;4.00;;;2.80;;
55114;SDS011;41010;53.252;5.786;2022-08-11T15:23:15;6.72;;;3.10;;
55114;SDS011;41010;53.252;5.786;2022-08-11T15:26:02;5.78;;;3.25;;
55114;SDS011;41010;53.252;5.786;2022-08-11T15:28:32;3.97;;;2.70;;
55114;SDS011;41010;53.252;5.786;2022-08-11T15:31:19;12.93;;;3.20;;
55114;SDS011;41010;53.252;5.786;2022-08-11T15:34:06;3.92;;;3.10;;
55114;SDS011;41010;53.252;5.786;2022-08-11T15:36:54;4.18;;;3.10;;
55114;SDS011;41010;53.252;5.786;2022-08-11T15:39:40;7.88;;;3.33;;
55114;SDS011;41010;53.252;5.786;2022-08-11T15:42:33;7.63;;;3.05;;
55114;SDS011;41010;53.252;5.786;2022-08-11T15:45:24;6.30;;;2.90;;
55114;SDS011;41010;53.252;5.786;2022-08-11T15:48:11;6.57;;;3.00;;
55114;SDS011;41010;53.252;5.786;2022-08-11T15:50:41;5.95;;;2.90;;
55114;SDS011;41010;53.252;5.786;2022-08-11T15:53:15;4.65;;;2.72;;
55114;SDS011;41010;53.252;5.786;2022-08-11T15:58:11;4.35;;;2.80;;
55114;SDS011;41010;53.252;5.786;2022-08-11T16:00:56;8.43;;;3.03;;
55114;SDS011;41010;53.252;5.786;2022-08-11T16:03:44;4.35;;;2.83;;
55114;SDS011;41010;53.252;5.786;2022-08-11T16:06:31;3.55;;;2.90;;
55114;SDS011;41010;53.252;5.786;2022-08-11T16:08:59;10.90;;;3.40;;
55114;SDS011;41010;53.252;5.786;2022-08-11T16:11:30;8.00;;;2.87;;
55114;SDS011;41010;53.252;5.786;2022-08-11T16:13:58;4.38;;;2.90;;
55114;SDS011;41010;53.252;5.786;2022-08-11T16:16:44;3.70;;;2.83;;
55114;SDS011;41010;53.252;5.786;2022-08-11T16:19:13;5.57;;;2.95;;
55114;SDS011;41010;53.252;5.786;2022-08-11T16:21:41;6.32;;;2.80;;
55114;SDS011;41010;53.252;5.786;2022-08-11T16:24:10;6.03;;;3.20;;
55114;SDS011;41010;53.252;5.786;2022-08-11T16:26:40;4.63;;;3.13;;
55114;SDS011;41010;53.252;5.786;2022-08-11T16:29:09;4.03;;;2.70;;
55114;SDS011;41010;53.252;5.786;2022-08-11T16:31:37;4.45;;;2.72;;
55114;SDS011;41010;53.252;5.786;2022-08-11T16:34:04;6.13;;;2.97;;
55114;SDS011;41010;53.252;5.786;2022-08-11T16:36:55;5.43;;;2.70;;
55114;SDS011;41010;53.252;5.786;2022-08-11T16:39:40;4.85;;;2.80;;